createdAt,value
2022-10-31T00:01:21.530Z,4.13
2022-10-31T00:03:48.850Z,3.83
2022-10-31T00:06:19.259Z,4.07
2022-10-31T00:11:14.627Z,4.35
2022-10-31T00:13:41.722Z,3.97
2022-10-31T00:16:18.972Z,4.00
2022-10-31T00:18:50.624Z,3.85
2022-10-31T00:21:18.136Z,4.25
2022-10-31T00:23:45.193Z,3.53
2022-10-31T00:26:12.369Z,3.55
2022-10-31T00:28:39.703Z,3.78
2022-10-31T00:31:12.142Z,3.78
2022-10-31T00:33:40.876Z,4.13
2022-10-31T00:36:09.390Z,3.70
2022-10-31T00:38:36.425Z,4.07
2022-10-31T00:41:03.491Z,3.30
2022-10-31T00:43:30.504Z,3.70
2022-10-31T00:45:57.570Z,3.40
2022-10-31T00:48:24.593Z,3.65
2022-10-31T00:50:51.614Z,3.88
2022-10-31T00:53:18.671Z,3.85
2022-10-31T00:55:45.968Z,3.25
2022-10-31T01:00:48.038Z,3.42
2022-10-31T01:03:18.037Z,3.40
2022-10-31T01:05:45.019Z,3.53
2022-10-31T01:08:12.046Z,3.90
2022-10-31T01:10:39.054Z,3.85
2022-10-31T01:13:06.079Z,3.55
2022-10-31T01:15:33.555Z,3.67
2022-10-31T01:18:00.890Z,3.70
2022-10-31T01:20:28.027Z,3.65
2022-10-31T01:22:54.992Z,3.60
2022-10-31T01:25:22.004Z,2.92
2022-10-31T01:27:49.009Z,3.47
2022-10-31T01:30:16.094Z,3.67
2022-10-31T01:32:43.096Z,3.33
2022-10-31T01:35:10.087Z,2.97
2022-10-31T01:37:37.054Z,3.40
2022-10-31T01:40:04.367Z,3.45
2022-10-31T01:42:31.405Z,3.47
2022-10-31T01:45:01.851Z,3.60
2022-10-31T01:47:42.058Z,3.58
2022-10-31T01:50:29.404Z,3.13
2022-10-31T01:52:56.836Z,3.55
2022-10-31T01:55:33.720Z,3.22
2022-10-31T01:58:07.982Z,3.00
2022-10-31T02:00:35.346Z,3.10
2022-10-31T02:03:02.938Z,3.30
2022-10-31T02:05:31.547Z,3.55
2022-10-31T02:08:12.502Z,3.35
2022-10-31T02:10:39.883Z,3.22
2022-10-31T02:13:08.445Z,3.40
2022-10-31T02:15:37.507Z,3.40
2022-10-31T02:18:05.799Z,3.47
2022-10-31T02:20:58.745Z,3.03
2022-10-31T02:24:05.469Z,3.42
2022-10-31T02:26:59.179Z,3.70
2022-10-31T02:30:05.779Z,3.38
2022-10-31T02:32:50.505Z,2.80
2022-10-31T02:35:57.486Z,3.55
2022-10-31T02:39:04.262Z,2.70
2022-10-31T02:41:45.887Z,3.42
2022-10-31T02:44:37.931Z,2.65
2022-10-31T02:47:19.863Z,3.15
2022-10-31T02:50:03.437Z,3.05
2022-10-31T02:52:32.783Z,2.88
2022-10-31T02:55:00.250Z,2.50
2022-10-31T02:57:32.087Z,3.20
2022-10-31T03:00:05.241Z,3.13
2022-10-31T03:03:07.370Z,3.33
2022-10-31T03:05:52.683Z,3.63
2022-10-31T03:08:47.041Z,2.50
2022-10-31T03:11:14.278Z,3.00
2022-10-31T03:13:52.994Z,3.05
2022-10-31T03:16:47.565Z,3.17
2022-10-31T03:19:39.895Z,2.90
2022-10-31T03:22:23.972Z,2.92
2022-10-31T03:24:53.203Z,2.65
2022-10-31T03:27:24.657Z,2.80
2022-10-31T03:29:56.184Z,3.00
2022-10-31T03:32:37.879Z,2.67
2022-10-31T03:35:07.886Z,2.95
2022-10-31T03:37:36.921Z,2.85
2022-10-31T03:40:08.086Z,2.85
2022-10-31T03:42:39.578Z,3.25
2022-10-31T03:45:26.351Z,3.15
2022-10-31T03:47:55.327Z,3.08
2022-10-31T03:50:24.718Z,2.33
2022-10-31T03:52:59.341Z,2.63
2022-10-31T03:55:32.341Z,2.78
2022-10-31T03:58:05.231Z,3.00
2022-10-31T04:00:35.066Z,2.90
2022-10-31T04:03:11.685Z,3.00
2022-10-31T04:05:40.583Z,3.03
2022-10-31T04:08:13.108Z,2.42
2022-10-31T04:10:41.584Z,2.97
2022-10-31T04:13:13.511Z,2.80
2022-10-31T04:15:42.547Z,2.90
2022-10-31T04:18:09.949Z,2.67
2022-10-31T04:20:39.905Z,2.63
2022-10-31T04:23:18.679Z,2.78
2022-10-31T04:25:45.891Z,2.55
2022-10-31T04:28:12.929Z,2.60
2022-10-31T04:30:40.001Z,2.88
2022-10-31T04:33:07.114Z,2.55
2022-10-31T04:35:34.154Z,2.80
2022-10-31T04:38:01.151Z,2.72
2022-10-31T04:40:28.256Z,2.70
2022-10-31T04:42:55.394Z,2.58
2022-10-31T04:45:22.433Z,2.75
2022-10-31T04:47:49.468Z,2.65
2022-10-31T04:50:16.858Z,2.90
2022-10-31T04:52:45.468Z,2.40
2022-10-31T04:55:13.706Z,2.50
2022-10-31T04:57:45.655Z,2.35
2022-10-31T05:00:15.142Z,2.42
2022-10-31T05:02:46.522Z,2.20
2022-10-31T05:05:15.662Z,2.85
2022-10-31T05:07:43.614Z,2.90
2022-10-31T05:10:16.785Z,2.80
2022-10-31T05:12:49.390Z,2.15
2022-10-31T05:15:17.035Z,2.65
2022-10-31T05:17:44.360Z,2.55
2022-10-31T05:20:12.907Z,2.50
2022-10-31T05:22:44.771Z,2.47
2022-10-31T05:25:12.555Z,2.65
2022-10-31T05:27:44.655Z,2.75
2022-10-31T05:30:13.731Z,2.20
2022-10-31T05:32:46.817Z,2.50
2022-10-31T05:35:18.788Z,2.60
2022-10-31T05:37:46.360Z,3.13
2022-10-31T05:40:15.653Z,2.70
2022-10-31T05:42:43.842Z,2.80
2022-10-31T05:45:14.057Z,2.72
2022-10-31T05:47:41.081Z,3.20
2022-10-31T05:50:09.273Z,2.40
2022-10-31T05:52:36.939Z,2.75
2022-10-31T05:55:04.633Z,2.85
2022-10-31T05:57:33.632Z,2.63
2022-10-31T06:00:01.141Z,3.03
2022-10-31T06:02:28.290Z,2.75
2022-10-31T06:04:55.435Z,2.95
2022-10-31T06:07:22.450Z,2.58
2022-10-31T06:09:49.472Z,2.92
2022-10-31T06:12:16.457Z,3.40
2022-10-31T06:14:43.438Z,3.28
2022-10-31T06:17:10.402Z,2.90
2022-10-31T06:19:37.432Z,2.45
2022-10-31T06:22:04.414Z,3.17
2022-10-31T06:24:31.408Z,2.85
2022-10-31T06:26:58.404Z,2.65
2022-10-31T06:29:25.420Z,3.17
2022-10-31T06:31:53.069Z,2.47
2022-10-31T06:34:20.121Z,2.53
2022-10-31T06:36:48.153Z,2.50
2022-10-31T06:39:15.683Z,3.03
2022-10-31T06:41:42.787Z,2.10
2022-10-31T06:44:09.821Z,3.17
2022-10-31T06:46:36.820Z,2.97
2022-10-31T06:49:03.886Z,2.85
2022-10-31T06:51:30.894Z,2.75
2022-10-31T06:53:57.882Z,3.22
2022-10-31T06:56:24.915Z,2.90
2022-10-31T06:58:51.887Z,2.67
2022-10-31T07:01:18.941Z,3.00
2022-10-31T07:03:45.993Z,2.88
2022-10-31T07:06:12.993Z,2.83
2022-10-31T07:08:39.967Z,2.83
2022-10-31T07:11:07.253Z,3.08
2022-10-31T07:13:34.322Z,3.17
2022-10-31T07:16:03.648Z,3.30
2022-10-31T07:18:30.883Z,3.45
2022-10-31T07:20:57.914Z,2.80
2022-10-31T07:23:24.928Z,3.00
2022-10-31T07:25:57.487Z,3.30
2022-10-31T07:28:25.555Z,2.78
2022-10-31T07:30:57.637Z,2.70
2022-10-31T07:33:27.161Z,2.83
2022-10-31T07:35:54.844Z,2.70
2022-10-31T07:38:21.859Z,3.00
2022-10-31T07:40:53.563Z,3.30
2022-10-31T07:43:20.985Z,2.90
2022-10-31T07:45:54.787Z,3.25
2022-10-31T07:48:22.114Z,2.78
2022-10-31T07:50:49.280Z,3.30
2022-10-31T07:53:16.564Z,3.20
2022-10-31T07:55:44.181Z,3.10
2022-10-31T07:58:13.682Z,3.25
2022-10-31T08:00:43.033Z,3.40
2022-10-31T08:03:15.346Z,3.50
2022-10-31T08:05:43.319Z,3.45
2022-10-31T08:08:10.745Z,3.00
2022-10-31T08:10:37.870Z,3.90
2022-10-31T08:13:14.091Z,3.72
2022-10-31T08:15:42.959Z,3.58
2022-10-31T08:18:14.648Z,3.25
2022-10-31T08:20:43.202Z,3.90
2022-10-31T08:23:11.645Z,4.18
2022-10-31T08:25:39.269Z,4.13
2022-10-31T08:28:07.753Z,4.15
2022-10-31T08:30:36.688Z,3.90
2022-10-31T08:33:12.066Z,4.40
2022-10-31T08:35:39.133Z,3.97
2022-10-31T08:38:06.707Z,4.50
2022-10-31T08:40:34.553Z,4.00
2022-10-31T08:43:03.863Z,4.00
2022-10-31T08:45:32.376Z,4.20
2022-10-31T08:48:01.676Z,4.50
2022-10-31T08:50:30.816Z,4.50
2022-10-31T08:53:05.680Z,4.45
2022-10-31T08:55:35.868Z,4.05
2022-10-31T08:58:04.577Z,4.40
2022-10-31T09:00:32.794Z,4.57
2022-10-31T09:03:01.683Z,4.63
2022-10-31T09:05:29.056Z,4.30
2022-10-31T09:08:00.711Z,4.20
2022-10-31T09:10:29.575Z,4.57
2022-10-31T09:12:58.786Z,4.97
2022-10-31T09:15:27.666Z,5.25
2022-10-31T09:17:55.019Z,5.05
2022-10-31T09:20:22.468Z,4.72
2022-10-31T09:22:56.192Z,5.10
2022-10-31T09:25:23.224Z,4.93
2022-10-31T09:27:50.228Z,5.50
2022-10-31T09:30:17.241Z,5.40
2022-10-31T09:32:44.315Z,4.82
2022-10-31T09:37:39.298Z,5.35
2022-10-31T09:40:06.606Z,5.45
2022-10-31T09:43:13.343Z,5.53
2022-10-31T09:46:01.275Z,5.30
2022-10-31T09:48:44.243Z,5.38
2022-10-31T09:51:17.079Z,5.55
2022-10-31T09:54:00.572Z,5.78
2022-10-31T09:56:28.987Z,5.60
2022-10-31T09:59:00.797Z,5.63
2022-10-31T10:01:49.678Z,6.10
2022-10-31T10:04:42.361Z,5.55
2022-10-31T10:07:40.682Z,6.28
2022-10-31T10:10:35.611Z,5.50
2022-10-31T10:13:32.365Z,5.80
2022-10-31T10:16:21.158Z,6.22
2022-10-31T10:19:14.086Z,6.28
2022-10-31T10:22:11.373Z,5.65
2022-10-31T10:25:06.393Z,6.63
2022-10-31T10:27:48.381Z,6.38
2022-10-31T10:30:19.202Z,5.30
2022-10-31T10:33:01.682Z,5.95
2022-10-31T10:35:48.633Z,5.80
2022-10-31T10:38:35.835Z,5.63
2022-10-31T10:41:07.354Z,6.05
2022-10-31T10:43:36.408Z,6.47
2022-10-31T10:46:39.215Z,6.03
2022-10-31T10:49:27.924Z,6.30
2022-10-31T10:55:34.044Z,5.90
2022-10-31T10:58:07.785Z,6.13
2022-10-31T11:00:41.820Z,6.00
2022-10-31T11:03:10.392Z,5.82
2022-10-31T11:05:54.345Z,5.57
2022-10-31T11:08:29.343Z,6.28
2022-10-31T11:11:08.365Z,6.38
2022-10-31T11:13:37.086Z,6.47
2022-10-31T11:16:08.806Z,6.78
2022-10-31T11:18:40.381Z,6.43
2022-10-31T11:21:20.410Z,6.45
2022-10-31T11:23:47.449Z,6.85
2022-10-31T11:26:22.087Z,6.32
2022-10-31T11:29:00.961Z,5.97
2022-10-31T11:31:28.666Z,6.47
2022-10-31T11:34:01.778Z,6.25
2022-10-31T11:36:31.922Z,6.40
2022-10-31T11:39:02.790Z,6.85
2022-10-31T11:41:37.548Z,6.13
2022-10-31T11:44:15.067Z,6.30
2022-10-31T11:46:46.190Z,6.40
2022-10-31T11:49:26.585Z,6.90
2022-10-31T11:54:33.775Z,6.63
2022-10-31T11:57:01.089Z,7.40
2022-10-31T11:59:31.806Z,6.70
2022-10-31T12:02:01.049Z,7.55
2022-10-31T12:04:50.160Z,7.23
2022-10-31T12:07:17.181Z,6.50
2022-10-31T12:09:44.402Z,6.25
2022-10-31T12:12:32.120Z,6.63
2022-10-31T12:15:33.324Z,7.05
2022-10-31T12:18:26.681Z,6.85
2022-10-31T12:21:17.506Z,7.55
2022-10-31T12:24:08.357Z,7.22
2022-10-31T12:27:03.798Z,6.38
2022-10-31T12:29:57.375Z,7.28
2022-10-31T12:32:42.158Z,7.10
2022-10-31T12:35:35.584Z,7.03
2022-10-31T12:38:19.224Z,7.72
2022-10-31T12:41:17.411Z,7.05
2022-10-31T12:44:03.945Z,6.70
2022-10-31T12:46:53.072Z,6.90
2022-10-31T12:49:53.562Z,7.13
2022-10-31T12:52:55.930Z,7.00
2022-10-31T12:56:01.997Z,7.22
2022-10-31T12:58:41.516Z,6.82
2022-10-31T13:01:24.710Z,7.28
2022-10-31T13:04:04.360Z,7.40
2022-10-31T13:06:44.314Z,6.53
2022-10-31T13:09:28.157Z,6.75
2022-10-31T13:12:01.949Z,7.22
2022-10-31T13:14:38.218Z,7.18
2022-10-31T13:17:06.561Z,7.05
2022-10-31T13:19:40.355Z,6.60
2022-10-31T13:22:18.477Z,6.75
2022-10-31T13:25:10.965Z,6.85
2022-10-31T13:27:56.078Z,7.03
2022-10-31T13:30:25.715Z,7.90
2022-10-31T13:33:03.179Z,7.65
2022-10-31T13:36:06.716Z,7.40
2022-10-31T13:38:53.424Z,7.43
2022-10-31T13:41:49.353Z,7.50
2022-10-31T13:44:22.830Z,7.80
2022-10-31T13:46:49.936Z,7.57
2022-10-31T13:49:39.197Z,6.85
2022-10-31T13:52:18.200Z,7.45
2022-10-31T13:54:48.601Z,7.65
2022-10-31T13:57:34.577Z,7.80
2022-10-31T14:00:06.789Z,7.65
2022-10-31T14:02:37.376Z,6.93
2022-10-31T14:05:22.932Z,7.50
2022-10-31T14:07:51.061Z,7.47
2022-10-31T14:10:30.731Z,7.80
2022-10-31T14:13:25.676Z,7.78
2022-10-31T14:16:02.796Z,7.45
2022-10-31T14:18:39.541Z,7.15
2022-10-31T14:21:29.325Z,7.85
2022-10-31T14:23:57.086Z,7.80
2022-10-31T14:26:36.637Z,7.22
2022-10-31T14:29:25.779Z,8.43
2022-10-31T14:32:02.614Z,7.25
2022-10-31T14:34:35.789Z,7.78
2022-10-31T14:37:29.002Z,7.18
2022-10-31T14:40:26.167Z,8.07
2022-10-31T14:43:30.414Z,7.85
2022-10-31T14:46:13.157Z,8.13
2022-10-31T14:49:19.867Z,8.13
2022-10-31T14:51:49.706Z,7.82
2022-10-31T14:54:21.081Z,8.25
2022-10-31T14:56:52.293Z,7.90
2022-10-31T14:59:27.567Z,8.98
2022-10-31T15:02:01.040Z,8.32
2022-10-31T15:04:31.112Z,8.13
2022-10-31T15:07:14.921Z,7.43
2022-10-31T15:09:44.767Z,7.35
2022-10-31T15:12:34.380Z,6.75
2022-10-31T15:15:17.874Z,7.82
2022-10-31T15:17:50.237Z,7.15
2022-10-31T15:20:24.423Z,7.10
2022-10-31T15:22:51.770Z,7.15
2022-10-31T15:25:23.415Z,7.32
2022-10-31T15:27:51.898Z,6.60
2022-10-31T15:30:24.712Z,7.32
2022-10-31T15:32:58.261Z,6.97
2022-10-31T15:35:30.434Z,7.65
2022-10-31T15:37:59.835Z,7.10
2022-10-31T15:40:29.230Z,7.25
2022-10-31T15:43:03.050Z,6.78
2022-10-31T15:45:31.743Z,6.28
2022-10-31T15:48:13.822Z,6.63
2022-10-31T15:50:46.315Z,7.07
2022-10-31T15:53:23.767Z,6.93
2022-10-31T15:55:56.408Z,7.03
2022-10-31T15:58:25.278Z,7.20
2022-10-31T16:01:04.765Z,7.00
2022-10-31T16:03:33.668Z,6.85
2022-10-31T16:06:04.752Z,6.20
2022-10-31T16:08:35.803Z,7.30
2022-10-31T16:11:32.826Z,6.30
2022-10-31T16:14:07.364Z,6.90
2022-10-31T16:16:42.608Z,6.20
2022-10-31T16:19:20.537Z,6.45
2022-10-31T16:21:51.215Z,6.43
2022-10-31T16:24:27.704Z,6.80
2022-10-31T16:27:02.947Z,6.10
2022-10-31T16:29:48.272Z,6.80
2022-10-31T16:32:34.794Z,6.20
2022-10-31T16:35:29.375Z,6.38
2022-10-31T16:37:56.739Z,7.15
2022-10-31T16:40:27.477Z,6.55
2022-10-31T16:45:23.650Z,6.88
2022-10-31T16:47:51.544Z,6.40
2022-10-31T16:50:27.772Z,6.10
2022-10-31T16:55:49.390Z,6.03
2022-10-31T16:58:25.097Z,6.63
2022-10-31T17:00:53.540Z,6.07
2022-10-31T17:03:20.970Z,6.70
2022-10-31T17:05:48.074Z,6.55
2022-10-31T17:08:15.159Z,6.57
2022-10-31T17:10:44.503Z,6.32
2022-10-31T17:13:20.477Z,5.90
2022-10-31T17:15:50.456Z,6.25
2022-10-31T17:18:22.777Z,6.82
2022-10-31T17:20:59.197Z,6.30
2022-10-31T17:23:26.692Z,6.30
2022-10-31T17:25:53.747Z,5.85
2022-10-31T17:28:25.238Z,6.47
2022-10-31T17:30:54.067Z,6.13
2022-10-31T17:33:21.916Z,6.07
2022-10-31T17:35:48.929Z,6.65
2022-10-31T17:38:15.914Z,6.22
2022-10-31T17:40:43.076Z,6.10
2022-10-31T17:43:11.278Z,6.53
2022-10-31T17:45:42.331Z,6.60
2022-10-31T17:48:13.121Z,6.05
2022-10-31T17:50:40.393Z,6.75
2022-10-31T17:53:07.439Z,6.25
2022-10-31T17:55:37.448Z,6.63
2022-10-31T17:58:05.584Z,5.72
2022-10-31T18:00:33.079Z,5.97
2022-10-31T18:03:01.722Z,6.50
2022-10-31T18:05:28.914Z,6.50
2022-10-31T18:07:58.280Z,5.95
2022-10-31T18:10:27.097Z,6.32
2022-10-31T18:12:54.283Z,6.45
2022-10-31T18:15:21.296Z,6.07
2022-10-31T18:17:48.311Z,5.95
2022-10-31T18:20:15.594Z,6.38
2022-10-31T18:22:42.581Z,5.82
2022-10-31T18:25:09.805Z,6.15
2022-10-31T18:27:37.051Z,6.45
2022-10-31T18:30:04.455Z,5.68
2022-10-31T18:32:31.432Z,6.45
2022-10-31T18:34:58.451Z,5.75
2022-10-31T18:37:25.467Z,6.32
2022-10-31T18:39:52.484Z,5.72
2022-10-31T18:42:19.497Z,6.20
2022-10-31T18:44:46.551Z,6.28
2022-10-31T18:47:13.682Z,6.68
2022-10-31T18:49:40.825Z,6.10
2022-10-31T18:52:07.852Z,6.45
2022-10-31T18:54:34.940Z,6.55
2022-10-31T18:57:02.171Z,6.13
2022-10-31T18:59:29.293Z,5.55
2022-10-31T19:01:56.332Z,6.20
2022-10-31T19:04:23.519Z,5.90
2022-10-31T19:06:50.623Z,6.22
2022-10-31T19:09:17.698Z,5.93
2022-10-31T19:11:44.736Z,5.88
2022-10-31T19:14:14.899Z,6.38
2022-10-31T19:16:42.235Z,6.07
2022-10-31T19:19:09.892Z,5.30
2022-10-31T19:21:36.923Z,6.57
2022-10-31T19:24:04.248Z,6.38
2022-10-31T19:26:34.983Z,6.00
2022-10-31T19:29:02.133Z,5.63
2022-10-31T19:31:29.132Z,5.70
2022-10-31T19:33:56.137Z,6.00
2022-10-31T19:36:23.957Z,5.95
2022-10-31T19:38:52.156Z,6.20
2022-10-31T19:41:26.260Z,5.35
2022-10-31T19:43:54.337Z,5.63
2022-10-31T19:46:40.429Z,5.80
2022-10-31T19:49:10.939Z,6.30
2022-10-31T19:51:38.019Z,6.03
2022-10-31T19:54:05.109Z,6.38
2022-10-31T19:56:32.124Z,5.72
2022-10-31T19:59:04.172Z,5.80
2022-10-31T20:01:31.383Z,6.30
2022-10-31T20:03:58.495Z,5.45
2022-10-31T20:06:28.198Z,5.85
2022-10-31T20:08:56.334Z,6.30
2022-10-31T20:11:25.168Z,5.60
2022-10-31T20:13:54.443Z,6.38
2022-10-31T20:16:21.653Z,6.10
2022-10-31T20:18:48.666Z,6.25
2022-10-31T20:21:23.845Z,5.97
2022-10-31T20:23:56.613Z,5.72
2022-10-31T20:26:24.741Z,6.25
2022-10-31T20:28:51.792Z,5.90
2022-10-31T20:31:23.836Z,5.80
2022-10-31T20:33:51.437Z,6.30
2022-10-31T20:36:23.051Z,5.40
2022-10-31T20:38:51.568Z,5.07
2022-10-31T20:41:19.173Z,5.95
2022-10-31T20:43:46.516Z,5.55
2022-10-31T20:46:16.883Z,5.72
2022-10-31T20:53:46.639Z,5.72
2022-10-31T20:56:16.012Z,5.97
2022-10-31T20:58:43.969Z,5.43
2022-10-31T21:01:17.720Z,5.15
2022-10-31T21:03:45.578Z,5.13
2022-10-31T21:06:13.052Z,5.78
2022-10-31T21:08:40.799Z,5.47
2022-10-31T21:11:10.125Z,5.80
2022-10-31T21:13:42.378Z,5.20
2022-10-31T21:16:15.070Z,5.47
2022-10-31T21:18:43.524Z,4.93
2022-10-31T21:21:28.869Z,5.80
2022-10-31T21:24:09.017Z,5.53
2022-10-31T21:26:39.426Z,5.35
2022-10-31T21:31:35.540Z,5.95
2022-10-31T21:34:02.632Z,5.28
2022-10-31T21:36:29.618Z,4.97
2022-10-31T21:38:56.982Z,4.97
2022-10-31T21:41:25.953Z,5.50
2022-10-31T21:43:57.291Z,4.97
2022-10-31T21:46:27.556Z,4.93
2022-10-31T21:48:55.531Z,5.38
2022-10-31T21:51:28.149Z,5.72
2022-10-31T21:54:15.833Z,5.05
2022-10-31T21:56:43.382Z,6.30
2022-10-31T21:59:10.726Z,5.22
2022-10-31T22:01:38.410Z,5.53
2022-10-31T22:04:06.010Z,5.93
2022-10-31T22:06:33.379Z,5.07
2022-10-31T22:09:01.659Z,4.95
2022-10-31T22:11:29.390Z,4.93
2022-10-31T22:13:59.204Z,5.32
2022-10-31T22:16:27.316Z,5.40
2022-10-31T22:18:56.200Z,4.93
2022-10-31T22:21:24.846Z,5.35
2022-10-31T22:24:00.601Z,5.50
2022-10-31T22:26:30.886Z,4.90
2022-10-31T22:29:02.344Z,5.15
2022-10-31T22:31:30.677Z,5.63
2022-10-31T22:33:58.320Z,4.75
2022-10-31T22:36:27.714Z,5.60
2022-10-31T22:38:55.039Z,5.30
2022-10-31T22:41:24.276Z,5.50
2022-10-31T22:43:51.498Z,5.53
2022-10-31T22:46:21.220Z,5.05
2022-10-31T22:48:50.985Z,5.25
2022-10-31T22:51:21.609Z,5.07
2022-10-31T22:53:49.042Z,5.55
2022-10-31T22:56:18.999Z,5.45
2022-10-31T22:58:46.782Z,4.78
2022-10-31T23:01:19.253Z,5.40
2022-10-31T23:03:46.959Z,4.95
2022-10-31T23:06:16.876Z,5.18
2022-10-31T23:08:44.501Z,5.45
2022-10-31T23:11:21.822Z,5.18
2022-10-31T23:14:11.271Z,4.82
2022-10-31T23:16:46.484Z,5.30
2022-10-31T23:19:19.667Z,5.20
2022-10-31T23:21:57.327Z,4.88
2022-10-31T23:24:40.607Z,5.70
2022-10-31T23:27:20.770Z,5.07
2022-10-31T23:29:53.346Z,4.18
2022-10-31T23:32:29.489Z,5.30
2022-10-31T23:34:58.792Z,5.55
2022-10-31T23:37:28.495Z,5.13
2022-10-31T23:39:56.496Z,4.68
2022-10-31T23:42:24.532Z,5.20
2022-10-31T23:44:51.983Z,5.47
2022-10-31T23:47:20.028Z,5.03
2022-10-31T23:49:47.334Z,4.65
2022-10-31T23:52:15.231Z,4.63
2022-10-31T23:54:42.492Z,5.25
2022-10-31T23:57:12.245Z,5.00
2022-10-31T23:59:39.279Z,5.13
